sensor_id;sensor_type;location;lat;lon;timestamp;temperature;humidity
71514;DHT22;59335;46.652;21.272;2022-08-01T00:00:52;29.25;40.87
71514;DHT22;59335;46.652;21.272;2022-08-01T00:03:55;29.26;40.86
71514;DHT22;59335;46.652;21.272;2022-08-01T00:06:58;29.26;40.96
71514;DHT22;59335;46.652;21.272;2022-08-01T00:10:03;29.25;41.05
71514;DHT22;59335;46.652;21.272;2022-08-01T00:13:05;29.21;41.01
71514;DHT22;59335;46.652;21.272;2022-08-01T00:16:09;29.26;41.06
71514;DHT22;59335;46.652;21.272;2022-08-01T00:19:12;29.22;41.13
71514;DHT22;59335;46.652;21.272;2022-08-01T00:22:14;29.25;41.17
71514;DHT22;59335;46.652;21.272;2022-08-01T00:25:17;29.23;41.20
71514;DHT22;59335;46.652;21.272;2022-08-01T00:28:20;29.23;41.30
71514;DHT22;59335;46.652;21.272;2022-08-01T00:31:23;29.23;41.30
71514;DHT22;59335;46.652;21.272;2022-08-01T00:34:25;29.22;41.39
71514;DHT22;59335;46.652;21.272;2022-08-01T00:37:28;29.23;41.48
71514;DHT22;59335;46.652;21.272;2022-08-01T00:40:31;29.23;41.47
71514;DHT22;59335;46.652;21.272;2022-08-01T00:43:34;29.25;41.41
71514;DHT22;59335;46.652;21.272;2022-08-01T00:46:37;29.22;41.56
71514;DHT22;59335;46.652;21.272;2022-08-01T00:49:41;29.23;41.54
71514;DHT22;59335;46.652;21.272;2022-08-01T00:52:44;29.22;41.55
71514;DHT22;59335;46.652;21.272;2022-08-01T00:55:53;29.21;41.62
71514;DHT22;59335;46.652;21.272;2022-08-01T00:58:56;29.21;41.66
71514;DHT22;59335;46.652;21.272;2022-08-01T01:02:00;29.22;41.68
71514;DHT22;59335;46.652;21.272;2022-08-01T01:05:03;29.21;41.72
71514;DHT22;59335;46.652;21.272;2022-08-01T01:08:14;29.22;41.71
71514;DHT22;59335;46.652;21.272;2022-08-01T01:11:26;29.22;41.65
71514;DHT22;59335;46.652;21.272;2022-08-01T01:14:38;29.19;41.78
71514;DHT22;59335;46.652;21.272;2022-08-01T01:17:57;29.19;41.69
71514;DHT22;59335;46.652;21.272;2022-08-01T01:31:59;29.18;41.66
71514;DHT22;59335;46.652;21.272;2022-08-01T01:35:18;29.19;41.62
71514;DHT22;59335;46.652;21.272;2022-08-01T01:38:25;29.19;41.58
71514;DHT22;59335;46.652;21.272;2022-08-01T01:41:29;29.16;41.63
71514;DHT22;59335;46.652;21.272;2022-08-01T01:44:33;29.16;41.63
71514;DHT22;59335;46.652;21.272;2022-08-01T01:47:38;29.18;41.59
71514;DHT22;59335;46.652;21.272;2022-08-01T01:50:48;29.14;41.60
71514;DHT22;59335;46.652;21.272;2022-08-01T01:53:53;29.15;41.61
71514;DHT22;59335;46.652;21.272;2022-08-01T01:56:59;29.16;41.59
71514;DHT22;59335;46.652;21.272;2022-08-01T02:00:03;29.15;41.60
71514;DHT22;59335;46.652;21.272;2022-08-01T02:03:10;29.15;41.57
71514;DHT22;59335;46.652;21.272;2022-08-01T02:06:14;29.16;41.55
71514;DHT22;59335;46.652;21.272;2022-08-01T02:09:20;29.15;41.54
71514;DHT22;59335;46.652;21.272;2022-08-01T02:12:23;29.15;41.52
71514;DHT22;59335;46.652;21.272;2022-08-01T02:15:27;29.15;41.52
71514;DHT22;59335;46.652;21.272;2022-08-01T02:18:31;29.15;41.50
71514;DHT22;59335;46.652;21.272;2022-08-01T02:24:43;29.15;41.56
71514;DHT22;59335;46.652;21.272;2022-08-01T02:28:07;29.16;41.58
71514;DHT22;59335;46.652;21.272;2022-08-01T02:31:13;29.11;41.56
71514;DHT22;59335;46.652;21.272;2022-08-01T02:34:19;29.14;41.56
71514;DHT22;59335;46.652;21.272;2022-08-01T02:37:23;29.12;41.54
71514;DHT22;59335;46.652;21.272;2022-08-01T02:40:32;29.12;41.56
71514;DHT22;59335;46.652;21.272;2022-08-01T02:43:40;29.12;41.53
71514;DHT22;59335;46.652;21.272;2022-08-01T02:46:50;29.10;41.64
71514;DHT22;59335;46.652;21.272;2022-08-01T02:49:54;29.11;41.57
71514;DHT22;59335;46.652;21.272;2022-08-01T02:52:58;29.14;41.50
71514;DHT22;59335;46.652;21.272;2022-08-01T02:56:03;29.07;41.54
71514;DHT22;59335;46.652;21.272;2022-08-01T02:59:10;29.08;41.52
71514;DHT22;59335;46.652;21.272;2022-08-01T03:02:16;29.11;41.50
71514;DHT22;59335;46.652;21.272;2022-08-01T03:05:19;29.10;41.51
71514;DHT22;59335;46.652;21.272;2022-08-01T03:08:24;29.07;41.59
71514;DHT22;59335;46.652;21.272;2022-08-01T03:11:28;29.08;41.54
71514;DHT22;59335;46.652;21.272;2022-08-01T03:14:35;29.07;41.45
71514;DHT22;59335;46.652;21.272;2022-08-01T03:17:40;29.07;41.47
71514;DHT22;59335;46.652;21.272;2022-08-01T03:20:46;29.08;41.38
71514;DHT22;59335;46.652;21.272;2022-08-01T03:23:50;29.10;41.34
71514;DHT22;59335;46.652;21.272;2022-08-01T03:26:57;29.07;41.38
71514;DHT22;59335;46.652;21.272;2022-08-01T03:30:02;29.07;41.39
71514;DHT22;59335;46.652;21.272;2022-08-01T03:33:07;29.07;41.42
71514;DHT22;59335;46.652;21.272;2022-08-01T03:36:11;29.04;41.44
71514;DHT22;59335;46.652;21.272;2022-08-01T03:39:16;29.04;41.47
71514;DHT22;59335;46.652;21.272;2022-08-01T03:42:24;29.05;41.46
71514;DHT22;59335;46.652;21.272;2022-08-01T03:45:35;29.04;41.45
71514;DHT22;59335;46.652;21.272;2022-08-01T03:48:44;29.05;41.38
71514;DHT22;59335;46.652;21.272;2022-08-01T03:51:49;29.08;41.41
71514;DHT22;59335;46.652;21.272;2022-08-01T03:54:54;29.07;41.34
71514;DHT22;59335;46.652;21.272;2022-08-01T03:57:58;29.04;41.37
71514;DHT22;59335;46.652;21.272;2022-08-01T04:01:02;29.04;41.44
71514;DHT22;59335;46.652;21.272;2022-08-01T04:04:05;29.04;41.44
71514;DHT22;59335;46.652;21.272;2022-08-01T04:07:28;29.07;41.33
71514;DHT22;59335;46.652;21.272;2022-08-01T04:10:31;29.05;41.39
71514;DHT22;59335;46.652;21.272;2022-08-01T04:13:34;29.07;41.35
71514;DHT22;59335;46.652;21.272;2022-08-01T04:16:38;29.05;41.36
71514;DHT22;59335;46.652;21.272;2022-08-01T04:19:41;29.05;41.39
71514;DHT22;59335;46.652;21.272;2022-08-01T04:22:44;29.03;41.35
71514;DHT22;59335;46.652;21.272;2022-08-01T04:25:47;29.04;41.32
71514;DHT22;59335;46.652;21.272;2022-08-01T04:28:51;29.04;41.35
71514;DHT22;59335;46.652;21.272;2022-08-01T04:31:56;29.07;41.31
71514;DHT22;59335;46.652;21.272;2022-08-01T04:34:59;29.05;41.31
71514;DHT22;59335;46.652;21.272;2022-08-01T04:38:26;29.04;41.32
71514;DHT22;59335;46.652;21.272;2022-08-01T04:41:31;29.04;41.31
71514;DHT22;59335;46.652;21.272;2022-08-01T04:44:35;29.04;41.32
71514;DHT22;59335;46.652;21.272;2022-08-01T04:47:38;29.05;41.31
71514;DHT22;59335;46.652;21.272;2022-08-01T04:50:41;29.15;41.27
71514;DHT22;59335;46.652;21.272;2022-08-01T04:53:44;29.14;41.16
71514;DHT22;59335;46.652;21.272;2022-08-01T04:56:50;29.08;41.24
71514;DHT22;59335;46.652;21.272;2022-08-01T04:59:53;29.04;41.19
71514;DHT22;59335;46.652;21.272;2022-08-01T05:02:59;29.03;41.16
71514;DHT22;59335;46.652;21.272;2022-08-01T05:06:02;29.01;41.19
71514;DHT22;59335;46.652;21.272;2022-08-01T05:09:04;29.03;41.12
71514;DHT22;59335;46.652;21.272;2022-08-01T05:12:08;29.00;41.07
71514;DHT22;59335;46.652;21.272;2022-08-01T05:15:11;28.98;41.10
71514;DHT22;59335;46.652;21.272;2022-08-01T05:18:16;28.95;41.21
71514;DHT22;59335;46.652;21.272;2022-08-01T05:21:29;28.93;41.23
71514;DHT22;59335;46.652;21.272;2022-08-01T05:24:32;28.94;41.28
71514;DHT22;59335;46.652;21.272;2022-08-01T05:27:37;28.91;41.42
71514;DHT22;59335;46.652;21.272;2022-08-01T05:30:43;28.88;41.52
71514;DHT22;59335;46.652;21.272;2022-08-01T05:33:46;28.88;41.50
71514;DHT22;59335;46.652;21.272;2022-08-01T05:36:48;28.86;41.58
71514;DHT22;59335;46.652;21.272;2022-08-01T05:39:57;28.86;41.54
71514;DHT22;59335;46.652;21.272;2022-08-01T05:43:00;28.86;41.58
71514;DHT22;59335;46.652;21.272;2022-08-01T05:46:03;28.86;41.63
71514;DHT22;59335;46.652;21.272;2022-08-01T05:49:05;28.81;41.57
71514;DHT22;59335;46.652;21.272;2022-08-01T05:52:08;28.87;41.46
71514;DHT22;59335;46.652;21.272;2022-08-01T05:55:11;28.80;41.57
71514;DHT22;59335;46.652;21.272;2022-08-01T05:58:14;28.81;41.62
71514;DHT22;59335;46.652;21.272;2022-08-01T06:01:17;28.80;41.45
71514;DHT22;59335;46.652;21.272;2022-08-01T06:04:20;28.80;41.36
71514;DHT22;59335;46.652;21.272;2022-08-01T06:07:23;28.77;41.36
71514;DHT22;59335;46.652;21.272;2022-08-01T06:10:26;28.78;41.33
71514;DHT22;59335;46.652;21.272;2022-08-01T06:13:29;28.84;41.21
71514;DHT22;59335;46.652;21.272;2022-08-01T06:16:31;28.78;41.35
71514;DHT22;59335;46.652;21.272;2022-08-01T06:19:34;28.75;41.38
71514;DHT22;59335;46.652;21.272;2022-08-01T06:22:37;28.80;41.38
71514;DHT22;59335;46.652;21.272;2022-08-01T06:25:42;28.77;41.41
71514;DHT22;59335;46.652;21.272;2022-08-01T06:28:45;28.80;41.28
71514;DHT22;59335;46.652;21.272;2022-08-01T06:31:48;28.80;41.28
71514;DHT22;59335;46.652;21.272;2022-08-01T06:34:50;28.77;41.39
71514;DHT22;59335;46.652;21.272;2022-08-01T06:37:53;28.80;41.36
71514;DHT22;59335;46.652;21.272;2022-08-01T06:40:56;28.78;41.39
71514;DHT22;59335;46.652;21.272;2022-08-01T06:43:59;28.78;41.46
71514;DHT22;59335;46.652;21.272;2022-08-01T06:47:04;28.78;41.49
71514;DHT22;59335;46.652;21.272;2022-08-01T06:50:08;28.77;41.49
71514;DHT22;59335;46.652;21.272;2022-08-01T06:53:13;28.73;41.59
71514;DHT22;59335;46.652;21.272;2022-08-01T06:56:16;28.78;41.42
71514;DHT22;59335;46.652;21.272;2022-08-01T06:59:18;28.80;41.31
71514;DHT22;59335;46.652;21.272;2022-08-01T07:02:22;28.80;41.27
71514;DHT22;59335;46.652;21.272;2022-08-01T07:05:25;28.80;41.22
71514;DHT22;59335;46.652;21.272;2022-08-01T07:08:28;28.81;41.14
71514;DHT22;59335;46.652;21.272;2022-08-01T07:11:31;28.78;41.09
71514;DHT22;59335;46.652;21.272;2022-08-01T07:14:34;28.81;40.95
71514;DHT22;59335;46.652;21.272;2022-08-01T07:17:41;28.80;40.97
71514;DHT22;59335;46.652;21.272;2022-08-01T07:20:45;28.75;40.98
71514;DHT22;59335;46.652;21.272;2022-08-01T07:23:54;28.80;40.84
71514;DHT22;59335;46.652;21.272;2022-08-01T07:26:57;28.78;40.75
71514;DHT22;59335;46.652;21.272;2022-08-01T07:30:22;28.73;40.84
71514;DHT22;59335;46.652;21.272;2022-08-01T07:33:25;28.73;40.52
71514;DHT22;59335;46.652;21.272;2022-08-01T07:36:48;28.75;40.25
71514;DHT22;59335;46.652;21.272;2022-08-01T07:39:51;28.74;40.25
71514;DHT22;59335;46.652;21.272;2022-08-01T07:42:54;28.80;40.07
71514;DHT22;59335;46.652;21.272;2022-08-01T07:45:56;28.78;40.11
71514;DHT22;59335;46.652;21.272;2022-08-01T07:48:59;28.75;40.02
71514;DHT22;59335;46.652;21.272;2022-08-01T07:52:02;28.80;39.91
71514;DHT22;59335;46.652;21.272;2022-08-01T07:55:06;28.80;39.84
71514;DHT22;59335;46.652;21.272;2022-08-01T07:58:09;28.81;39.88
71514;DHT22;59335;46.652;21.272;2022-08-01T08:01:12;28.81;39.66
71514;DHT22;59335;46.652;21.272;2022-08-01T08:04:15;28.87;39.61
71514;DHT22;59335;46.652;21.272;2022-08-01T08:07:18;28.86;39.49
71514;DHT22;59335;46.652;21.272;2022-08-01T08:10:21;28.91;39.41
71514;DHT22;59335;46.652;21.272;2022-08-01T08:13:23;28.88;39.28
71514;DHT22;59335;46.652;21.272;2022-08-01T08:16:26;28.87;39.09
71514;DHT22;59335;46.652;21.272;2022-08-01T08:19:29;28.83;39.10
71514;DHT22;59335;46.652;21.272;2022-08-01T08:22:39;28.84;39.09
71514;DHT22;59335;46.652;21.272;2022-08-01T08:25:41;28.83;38.92
71514;DHT22;59335;46.652;21.272;2022-08-01T08:28:44;28.88;38.85
71514;DHT22;59335;46.652;21.272;2022-08-01T08:31:47;28.87;38.91
71514;DHT22;59335;46.652;21.272;2022-08-01T08:34:53;28.86;38.84
71514;DHT22;59335;46.652;21.272;2022-08-01T08:37:56;28.91;38.77
71514;DHT22;59335;46.652;21.272;2022-08-01T08:40:59;28.87;38.83
71514;DHT22;59335;46.652;21.272;2022-08-01T08:44:04;28.87;38.91
71514;DHT22;59335;46.652;21.272;2022-08-01T08:47:13;28.88;38.87
71514;DHT22;59335;46.652;21.272;2022-08-01T08:50:22;28.87;38.81
71514;DHT22;59335;46.652;21.272;2022-08-01T08:53:25;28.86;38.81
71514;DHT22;59335;46.652;21.272;2022-08-01T08:56:37;28.86;38.79
71514;DHT22;59335;46.652;21.272;2022-08-01T08:59:40;28.87;38.75
71514;DHT22;59335;46.652;21.272;2022-08-01T09:02:46;28.86;38.72
71514;DHT22;59335;46.652;21.272;2022-08-01T09:05:51;28.90;38.71
71514;DHT22;59335;46.652;21.272;2022-08-01T09:08:54;28.78;38.85
71514;DHT22;59335;46.652;21.272;2022-08-01T09:11:56;28.83;38.69
71514;DHT22;59335;46.652;21.272;2022-08-01T09:14:59;28.81;38.49
71514;DHT22;59335;46.652;21.272;2022-08-01T09:18:02;28.86;38.58
71514;DHT22;59335;46.652;21.272;2022-08-01T09:24:15;28.84;37.99
71514;DHT22;59335;46.652;21.272;2022-08-01T09:27:21;28.88;37.78
71514;DHT22;59335;46.652;21.272;2022-08-01T09:30:26;28.78;37.80
71514;DHT22;59335;46.652;21.272;2022-08-01T09:33:49;28.75;37.51
71514;DHT22;59335;46.652;21.272;2022-08-01T09:39:58;28.83;37.18
71514;DHT22;59335;46.652;21.272;2022-08-01T09:43:11;28.87;37.09
71514;DHT22;59335;46.652;21.272;2022-08-01T09:46:16;28.81;37.19
71514;DHT22;59335;46.652;21.272;2022-08-01T09:49:33;28.83;37.11
71514;DHT22;59335;46.652;21.272;2022-08-01T09:52:55;28.86;37.09
71514;DHT22;59335;46.652;21.272;2022-08-01T09:56:09;28.80;36.87
71514;DHT22;59335;46.652;21.272;2022-08-01T09:59:13;28.78;37.06
71514;DHT22;59335;46.652;21.272;2022-08-01T10:02:35;28.83;36.88
71514;DHT22;59335;46.652;21.272;2022-08-01T10:05:38;28.74;36.85
71514;DHT22;59335;46.652;21.272;2022-08-01T10:08:51;28.75;36.79
71514;DHT22;59335;46.652;21.272;2022-08-01T10:11:55;28.83;36.69
71514;DHT22;59335;46.652;21.272;2022-08-01T10:14:59;28.78;36.76
71514;DHT22;59335;46.652;21.272;2022-08-01T10:18:05;28.80;36.95
71514;DHT22;59335;46.652;21.272;2022-08-01T10:21:23;28.81;36.95
71514;DHT22;59335;46.652;21.272;2022-08-01T10:24:50;28.80;36.99
71514;DHT22;59335;46.652;21.272;2022-08-01T10:27:56;28.81;36.95
71514;DHT22;59335;46.652;21.272;2022-08-01T10:31:01;28.77;36.95
71514;DHT22;59335;46.652;21.272;2022-08-01T10:34:13;28.81;36.89
71514;DHT22;59335;46.652;21.272;2022-08-01T10:37:25;28.81;36.81
71514;DHT22;59335;46.652;21.272;2022-08-01T10:40:28;28.77;36.74
71514;DHT22;59335;46.652;21.272;2022-08-01T10:43:32;28.80;36.76
71514;DHT22;59335;46.652;21.272;2022-08-01T10:46:39;28.84;36.75
71514;DHT22;59335;46.652;21.272;2022-08-01T10:50:03;28.87;36.70
71514;DHT22;59335;46.652;21.272;2022-08-01T10:53:22;28.95;36.82
71514;DHT22;59335;46.652;21.272;2022-08-01T10:56:49;28.94;36.89
71514;DHT22;59335;46.652;21.272;2022-08-01T10:59:52;29.00;36.93
71514;DHT22;59335;46.652;21.272;2022-08-01T11:03:03;29.00;36.87
71514;DHT22;59335;46.652;21.272;2022-08-01T11:06:06;29.04;36.90
71514;DHT22;59335;46.652;21.272;2022-08-01T11:12:19;29.04;36.96
71514;DHT22;59335;46.652;21.272;2022-08-01T11:15:26;29.01;37.02
71514;DHT22;59335;46.652;21.272;2022-08-01T11:18:33;29.05;37.06
71514;DHT22;59335;46.652;21.272;2022-08-01T11:25:02;29.10;37.03
71514;DHT22;59335;46.652;21.272;2022-08-01T11:31:31;29.11;37.15
71514;DHT22;59335;46.652;21.272;2022-08-01T11:34:55;29.12;37.15
71514;DHT22;59335;46.652;21.272;2022-08-01T11:38:24;29.14;37.11
71514;DHT22;59335;46.652;21.272;2022-08-01T11:41:34;29.12;37.11
71514;DHT22;59335;46.652;21.272;2022-08-01T11:44:50;29.15;37.13
71514;DHT22;59335;46.652;21.272;2022-08-01T11:47:54;29.15;37.17
71514;DHT22;59335;46.652;21.272;2022-08-01T11:50:59;29.19;37.16
71514;DHT22;59335;46.652;21.272;2022-08-01T11:54:03;29.21;37.14
71514;DHT22;59335;46.652;21.272;2022-08-01T11:57:09;29.19;37.16
71514;DHT22;59335;46.652;21.272;2022-08-01T12:00:16;29.22;37.17
71514;DHT22;59335;46.652;21.272;2022-08-01T12:03:27;29.21;37.16
71514;DHT22;59335;46.652;21.272;2022-08-01T12:06:35;29.21;37.20
71514;DHT22;59335;46.652;21.272;2022-08-01T12:09:38;29.21;37.19
71514;DHT22;59335;46.652;21.272;2022-08-01T12:12:48;29.22;37.24
71514;DHT22;59335;46.652;21.272;2022-08-01T12:15:52;29.23;37.28
71514;DHT22;59335;46.652;21.272;2022-08-01T12:18:58;29.22;37.33
71514;DHT22;59335;46.652;21.272;2022-08-01T12:22:10;29.22;37.22
71514;DHT22;59335;46.652;21.272;2022-08-01T12:25:16;29.23;37.22
71514;DHT22;59335;46.652;21.272;2022-08-01T12:28:19;29.25;37.15
71514;DHT22;59335;46.652;21.272;2022-08-01T12:31:31;29.26;37.11
71514;DHT22;59335;46.652;21.272;2022-08-01T12:34:33;29.26;37.14
71514;DHT22;59335;46.652;21.272;2022-08-01T12:37:37;29.25;37.22
71514;DHT22;59335;46.652;21.272;2022-08-01T12:40:42;29.23;37.22
71514;DHT22;59335;46.652;21.272;2022-08-01T12:43:47;29.26;37.24
71514;DHT22;59335;46.652;21.272;2022-08-01T12:46:50;29.26;37.27
71514;DHT22;59335;46.652;21.272;2022-08-01T12:49:54;29.26;37.30
71514;DHT22;59335;46.652;21.272;2022-08-01T12:52:57;29.28;37.25
71514;DHT22;59335;46.652;21.272;2022-08-01T12:56:00;29.31;37.31
71514;DHT22;59335;46.652;21.272;2022-08-01T12:59:19;29.29;37.38
71514;DHT22;59335;46.652;21.272;2022-08-01T13:02:31;29.32;37.33
71514;DHT22;59335;46.652;21.272;2022-08-01T13:08:46;29.32;37.44
71514;DHT22;59335;46.652;21.272;2022-08-01T13:11:49;29.31;37.37
71514;DHT22;59335;46.652;21.272;2022-08-01T13:15:36;29.32;37.39
71514;DHT22;59335;46.652;21.272;2022-08-01T13:18:48;29.35;37.40
71514;DHT22;59335;46.652;21.272;2022-08-01T13:21:56;29.32;37.40
71514;DHT22;59335;46.652;21.272;2022-08-01T13:25:17;29.35;37.44
71514;DHT22;59335;46.652;21.272;2022-08-01T13:28:27;29.33;37.44
71514;DHT22;59335;46.652;21.272;2022-08-01T13:31:34;29.32;37.49
71514;DHT22;59335;46.652;21.272;2022-08-01T13:34:37;29.32;37.47
71514;DHT22;59335;46.652;21.272;2022-08-01T13:37:41;29.35;37.49
71514;DHT22;59335;46.652;21.272;2022-08-01T13:40:44;29.32;37.50
71514;DHT22;59335;46.652;21.272;2022-08-01T13:43:47;29.35;37.47
71514;DHT22;59335;46.652;21.272;2022-08-01T13:47:02;29.35;37.55
71514;DHT22;59335;46.652;21.272;2022-08-01T13:50:18;29.36;37.54
71514;DHT22;59335;46.652;21.272;2022-08-01T13:53:21;29.33;37.57
71514;DHT22;59335;46.652;21.272;2022-08-01T13:56:24;29.38;37.59
71514;DHT22;59335;46.652;21.272;2022-08-01T13:59:27;29.38;37.59
71514;DHT22;59335;46.652;21.272;2022-08-01T14:02:29;29.36;37.59
71514;DHT22;59335;46.652;21.272;2022-08-01T14:05:32;29.36;37.55
71514;DHT22;59335;46.652;21.272;2022-08-01T14:08:35;29.36;37.55
71514;DHT22;59335;46.652;21.272;2022-08-01T14:11:38;29.38;37.52
71514;DHT22;59335;46.652;21.272;2022-08-01T14:14:47;29.38;37.58
71514;DHT22;59335;46.652;21.272;2022-08-01T14:17:50;29.39;37.53
71514;DHT22;59335;46.652;21.272;2022-08-01T14:20:53;29.38;37.59
71514;DHT22;59335;46.652;21.272;2022-08-01T14:24:00;29.38;37.59
71514;DHT22;59335;46.652;21.272;2022-08-01T14:27:03;29.39;37.57
71514;DHT22;59335;46.652;21.272;2022-08-01T14:30:06;29.39;37.59
71514;DHT22;59335;46.652;21.272;2022-08-01T14:33:12;29.41;37.58
71514;DHT22;59335;46.652;21.272;2022-08-01T14:36:15;29.41;37.57
71514;DHT22;59335;46.652;21.272;2022-08-01T14:39:32;29.39;37.58
71514;DHT22;59335;46.652;21.272;2022-08-01T14:42:37;29.38;37.57
71514;DHT22;59335;46.652;21.272;2022-08-01T14:45:40;29.42;37.58
71514;DHT22;59335;46.652;21.272;2022-08-01T14:48:43;29.41;37.59
71514;DHT22;59335;46.652;21.272;2022-08-01T14:51:46;29.43;37.58
71514;DHT22;59335;46.652;21.272;2022-08-01T14:54:48;29.43;37.62
71514;DHT22;59335;46.652;21.272;2022-08-01T14:57:51;29.41;37.64
71514;DHT22;59335;46.652;21.272;2022-08-01T15:00:54;29.43;37.67
71514;DHT22;59335;46.652;21.272;2022-08-01T15:04:00;29.42;37.69
71514;DHT22;59335;46.652;21.272;2022-08-01T15:07:05;29.41;37.58
71514;DHT22;59335;46.652;21.272;2022-08-01T15:10:10;29.42;37.65
71514;DHT22;59335;46.652;21.272;2022-08-01T15:13:13;29.42;37.68
71514;DHT22;59335;46.652;21.272;2022-08-01T15:16:15;29.39;37.62
71514;DHT22;59335;46.652;21.272;2022-08-01T15:19:18;29.41;37.66
71514;DHT22;59335;46.652;21.272;2022-08-01T15:22:22;29.42;37.67
71514;DHT22;59335;46.652;21.272;2022-08-01T15:25:25;29.39;37.65
71514;DHT22;59335;46.652;21.272;2022-08-01T15:28:43;29.39;37.72
71514;DHT22;59335;46.652;21.272;2022-08-01T15:31:46;29.42;37.71
71514;DHT22;59335;46.652;21.272;2022-08-01T15:34:48;29.41;37.67
71514;DHT22;59335;46.652;21.272;2022-08-01T15:37:51;29.42;37.74
71514;DHT22;59335;46.652;21.272;2022-08-01T15:40:54;29.39;37.69
71514;DHT22;59335;46.652;21.272;2022-08-01T15:43:56;29.39;37.68
71514;DHT22;59335;46.652;21.272;2022-08-01T15:46:59;29.42;37.71
71514;DHT22;59335;46.652;21.272;2022-08-01T15:50:04;29.45;37.72
71514;DHT22;59335;46.652;21.272;2022-08-01T15:53:06;29.39;37.72
71514;DHT22;59335;46.652;21.272;2022-08-01T15:56:09;29.39;37.69
71514;DHT22;59335;46.652;21.272;2022-08-01T15:59:12;29.41;37.72
71514;DHT22;59335;46.652;21.272;2022-08-01T16:02:15;29.38;37.73
71514;DHT22;59335;46.652;21.272;2022-08-01T16:05:17;29.41;37.69
71514;DHT22;59335;46.652;21.272;2022-08-01T16:08:21;29.38;37.73
71514;DHT22;59335;46.652;21.272;2022-08-01T16:11:24;29.42;37.68
71514;DHT22;59335;46.652;21.272;2022-08-01T16:14:29;29.39;37.69
71514;DHT22;59335;46.652;21.272;2022-08-01T16:17:31;29.39;37.69
71514;DHT22;59335;46.652;21.272;2022-08-01T16:20:35;29.36;37.65
71514;DHT22;59335;46.652;21.272;2022-08-01T16:23:44;29.42;37.63
71514;DHT22;59335;46.652;21.272;2022-08-01T16:26:47;29.39;37.65
71514;DHT22;59335;46.652;21.272;2022-08-01T16:29:50;29.41;37.59
71514;DHT22;59335;46.652;21.272;2022-08-01T16:32:53;29.39;37.63
71514;DHT22;59335;46.652;21.272;2022-08-01T16:36:01;29.39;37.59
71514;DHT22;59335;46.652;21.272;2022-08-01T16:39:04;29.36;37.62
71514;DHT22;59335;46.652;21.272;2022-08-01T16:42:08;29.41;37.57
71514;DHT22;59335;46.652;21.272;2022-08-01T16:45:12;29.39;37.55
71514;DHT22;59335;46.652;21.272;2022-08-01T16:48:17;29.39;37.55
71514;DHT22;59335;46.652;21.272;2022-08-01T16:51:21;29.38;37.57
71514;DHT22;59335;46.652;21.272;2022-08-01T16:54:23;29.39;37.61
71514;DHT22;59335;46.652;21.272;2022-08-01T16:57:27;29.39;37.61
71514;DHT22;59335;46.652;21.272;2022-08-01T17:00:40;29.41;37.59
71514;DHT22;59335;46.652;21.272;2022-08-01T17:03:58;29.41;37.59
71514;DHT22;59335;46.652;21.272;2022-08-01T17:07:03;29.39;37.58
71514;DHT22;59335;46.652;21.272;2022-08-01T17:10:07;29.35;37.59
71514;DHT22;59335;46.652;21.272;2022-08-01T17:13:10;29.38;37.58
71514;DHT22;59335;46.652;21.272;2022-08-01T17:16:13;29.35;37.58
71514;DHT22;59335;46.652;21.272;2022-08-01T17:19:16;29.35;37.63
71514;DHT22;59335;46.652;21.272;2022-08-01T17:22:18;29.36;37.63
71514;DHT22;59335;46.652;21.272;2022-08-01T17:25:22;29.35;37.66
71514;DHT22;59335;46.652;21.272;2022-08-01T17:28:27;29.32;37.74
71514;DHT22;59335;46.652;21.272;2022-08-01T17:31:30;29.31;37.82
71514;DHT22;59335;46.652;21.272;2022-08-01T17:34:32;29.31;37.85
71514;DHT22;59335;46.652;21.272;2022-08-01T17:37:35;29.29;37.84
71514;DHT22;59335;46.652;21.272;2022-08-01T17:40:38;29.26;37.91
71514;DHT22;59335;46.652;21.272;2022-08-01T17:43:42;29.25;37.97
71514;DHT22;59335;46.652;21.272;2022-08-01T17:46:45;29.23;38.02
71514;DHT22;59335;46.652;21.272;2022-08-01T17:49:48;29.25;38.00
71514;DHT22;59335;46.652;21.272;2022-08-01T17:52:58;29.21;38.09
71514;DHT22;59335;46.652;21.272;2022-08-01T17:56:01;29.25;38.05
71514;DHT22;59335;46.652;21.272;2022-08-01T17:59:07;29.22;38.06
71514;DHT22;59335;46.652;21.272;2022-08-01T18:02:10;29.25;38.06
71514;DHT22;59335;46.652;21.272;2022-08-01T18:05:12;29.21;38.24
71514;DHT22;59335;46.652;21.272;2022-08-01T18:08:17;29.23;38.16
71514;DHT22;59335;46.652;21.272;2022-08-01T18:11:20;29.18;38.29
71514;DHT22;59335;46.652;21.272;2022-08-01T18:14:22;29.21;38.30
71514;DHT22;59335;46.652;21.272;2022-08-01T18:17:42;29.18;38.41
71514;DHT22;59335;46.652;21.272;2022-08-01T18:20:46;29.19;38.41
71514;DHT22;59335;46.652;21.272;2022-08-01T18:23:49;29.16;38.38
71514;DHT22;59335;46.652;21.272;2022-08-01T18:26:53;29.19;38.40
71514;DHT22;59335;46.652;21.272;2022-08-01T18:29:56;29.18;38.41
71514;DHT22;59335;46.652;21.272;2022-08-01T18:32:59;29.18;38.47
71514;DHT22;59335;46.652;21.272;2022-08-01T18:36:03;29.16;38.51
71514;DHT22;59335;46.652;21.272;2022-08-01T18:39:07;29.14;38.59
71514;DHT22;59335;46.652;21.272;2022-08-01T18:42:11;29.11;38.58
71514;DHT22;59335;46.652;21.272;2022-08-01T18:45:14;29.11;38.61
71514;DHT22;59335;46.652;21.272;2022-08-01T18:48:18;29.12;38.65
71514;DHT22;59335;46.652;21.272;2022-08-01T18:51:21;29.14;38.69
71514;DHT22;59335;46.652;21.272;2022-08-01T18:54:24;29.12;38.76
71514;DHT22;59335;46.652;21.272;2022-08-01T18:57:27;29.08;38.81
71514;DHT22;59335;46.652;21.272;2022-08-01T19:00:30;29.08;38.91
71514;DHT22;59335;46.652;21.272;2022-08-01T19:03:33;29.10;38.83
71514;DHT22;59335;46.652;21.272;2022-08-01T19:06:42;29.10;38.94
71514;DHT22;59335;46.652;21.272;2022-08-01T19:09:49;29.10;38.99
71514;DHT22;59335;46.652;21.272;2022-08-01T19:12:52;29.08;38.93
71514;DHT22;59335;46.652;21.272;2022-08-01T19:15:54;29.08;38.96
71514;DHT22;59335;46.652;21.272;2022-08-01T19:19:02;29.07;39.03
71514;DHT22;59335;46.652;21.272;2022-08-01T19:22:05;29.08;39.10
71514;DHT22;59335;46.652;21.272;2022-08-01T19:25:08;29.08;39.21
71514;DHT22;59335;46.652;21.272;2022-08-01T19:28:12;29.05;39.21
71514;DHT22;59335;46.652;21.272;2022-08-01T19:31:24;29.04;39.24
71514;DHT22;59335;46.652;21.272;2022-08-01T19:34:28;29.04;39.23
71514;DHT22;59335;46.652;21.272;2022-08-01T19:37:31;29.03;39.28
71514;DHT22;59335;46.652;21.272;2022-08-01T19:40:37;29.04;39.31
71514;DHT22;59335;46.652;21.272;2022-08-01T19:43:39;29.03;39.34
71514;DHT22;59335;46.652;21.272;2022-08-01T19:46:48;29.04;39.42